Time;durP1;ratioP1;P1;durP2;ratioP2;P2;SDS_P1;SDS_P2;PMS_P1;PMS_P2;Temp;Humidity;BMP_temperature;BMP_pressure;BME280_temperature;BME280_humidity;BME280_pressure;Samples;Min_cycle;Max_cycle;Signal;HPM_P1;HPM_P2
2022/11/18 00:01:42;;;;;;;645.13;607.10;;;8.30;99.90;;;;;;4980908;28;20458;-86
2022/11/18 00:04:09;;;;;;;651.20;612.50;;;8.30;99.90;;;;;;4980584;28;20455;-87
2022/11/18 00:06:36;;;;;;;645.50;606.83;;;8.30;99.90;;;;;;4981040;28;20461;-86
2022/11/18 00:09:03;;;;;;;637.47;599.97;;;8.30;99.90;;;;;;4980190;28;20566;-86
2022/11/18 00:14:19;;;;;;;637.97;599.57;;;8.40;99.90;;;;;;4960320;28;20530;-86
2022/11/18 00:16:47;;;;;;;639.40;602.30;;;8.30;99.90;;;;;;4981137;28;20457;-86
2022/11/18 00:19:14;;;;;;;636.73;599.60;;;8.30;99.90;;;;;;4980256;28;20471;-87
2022/11/18 00:21:41;;;;;;;620.57;584.33;;;8.30;99.90;;;;;;4980178;28;20462;-86
2022/11/18 00:24:08;;;;;;;630.43;593.80;;;8.40;99.90;;;;;;4980361;28;20466;-86
2022/11/18 00:26:35;;;;;;;621.97;585.53;;;8.30;99.90;;;;;;4979778;28;20442;-86
2022/11/18 00:29:02;;;;;;;619.30;583.67;;;8.30;99.90;;;;;;4980060;28;20482;-86
2022/11/18 00:31:30;;;;;;;612.10;577.10;;;8.40;99.90;;;;;;4979358;28;20529;-86
2022/11/18 00:33:57;;;;;;;608.70;574.23;;;8.40;99.90;;;;;;4980050;28;20451;-88
2022/11/18 00:36:24;;;;;;;602.17;569.37;;;8.40;99.90;;;;;;4980194;28;20466;-85
2022/11/18 00:38:50;;;;;;;602.80;569.90;;;8.30;99.90;;;;;;4980292;28;20474;-86
2022/11/18 00:41:17;;;;;;;600.40;566.90;;;8.40;99.90;;;;;;4979746;28;20465;-86
2022/11/18 00:43:43;;;;;;;593.57;561.53;;;8.40;99.90;;;;;;4979960;28;20482;-86
2022/11/18 00:46:11;;;;;;;588.83;557.20;;;8.40;99.90;;;;;;4980261;28;20955;-86
2022/11/18 00:48:40;;;;;;;580.60;549.40;;;8.40;99.90;;;;;;4979686;28;20219;-86
2022/11/18 00:51:09;;;;;;;580.17;548.53;;;8.40;99.90;;;;;;4980120;28;20478;-86
2022/11/18 00:53:36;;;;;;;584.07;552.80;;;8.30;99.90;;;;;;4979810;28;20461;-87
2022/11/18 00:56:03;;;;;;;585.10;554.70;;;8.30;99.90;;;;;;4979638;28;20485;-86
2022/11/18 00:58:30;;;;;;;584.27;553.47;;;8.40;99.90;;;;;;4979945;28;20474;-86
2022/11/18 01:00:57;;;;;;;579.27;548.33;;;8.40;99.90;;;;;;4980023;28;20451;-86
2022/11/18 01:03:24;;;;;;;571.77;541.10;;;8.30;99.90;;;;;;4980086;28;20968;-86
2022/11/18 01:05:53;;;;;;;584.33;552.97;;;8.30;99.90;;;;;;4980219;28;20455;-86
2022/11/18 01:08:20;;;;;;;576.20;544.80;;;8.30;99.90;;;;;;4979730;28;20514;-86
2022/11/18 01:10:48;;;;;;;578.67;546.77;;;8.30;99.90;;;;;;4979532;28;20474;-86
2022/11/18 01:13:19;;;;;;;578.53;546.47;;;8.30;99.90;;;;;;4979691;28;20837;-87
2022/11/18 01:15:47;;;;;;;590.67;558.17;;;8.30;99.90;;;;;;4980700;28;20482;-86
2022/11/18 01:18:14;;;;;;;589.77;557.77;;;8.20;99.90;;;;;;4979372;28;20997;-86
2022/11/18 01:20:41;;;;;;;583.73;550.70;;;8.20;99.90;;;;;;4982955;28;20811;-86
2022/11/18 01:23:09;;;;;;;586.90;555.03;;;8.20;99.90;;;;;;4983059;28;20458;-86
2022/11/18 01:25:37;;;;;;;588.20;556.90;;;8.10;99.90;;;;;;4983587;28;20459;-86
2022/11/18 01:28:04;;;;;;;589.97;557.70;;;8.00;99.90;;;;;;4983393;28;20478;-86
2022/11/18 01:30:33;;;;;;;618.23;583.13;;;8.00;99.90;;;;;;4983013;28;21034;-86
2022/11/18 01:33:00;;;;;;;630.70;593.17;;;8.00;99.90;;;;;;4983879;28;20459;-87
2022/11/18 01:35:27;;;;;;;639.77;600.47;;;8.00;99.90;;;;;;4983487;28;20455;-86
2022/11/18 01:37:54;;;;;;;638.87;599.67;;;8.00;99.90;;;;;;4983898;28;20485;-88
2022/11/18 01:40:22;;;;;;;634.50;595.20;;;8.00;99.90;;;;;;4983382;28;20446;-84
2022/11/18 01:42:49;;;;;;;631.43;591.73;;;8.10;99.90;;;;;;4983300;28;20465;-86
2022/11/18 01:45:24;;;;;;;616.80;578.33;;;8.10;99.90;;;;;;4983312;28;20459;-86
2022/11/18 01:47:55;;;;;;;619.80;582.07;;;8.10;99.90;;;;;;4983322;28;20988;-86
2022/11/18 01:50:23;;;;;;;610.53;573.83;;;8.20;99.90;;;;;;4982346;28;20459;-86
2022/11/18 01:52:50;;;;;;;600.83;565.40;;;8.20;99.90;;;;;;4983293;28;20850;-86
2022/11/18 01:55:21;;;;;;;609.40;574.50;;;8.20;99.90;;;;;;4983124;28;20458;-87
2022/11/18 01:57:51;;;;;;;599.10;565.20;;;8.20;99.90;;;;;;4983123;28;20475;-86
2022/11/18 02:00:18;;;;;;;588.93;555.47;;;8.20;99.90;;;;;;4982731;28;20454;-85
2022/11/18 02:02:45;;;;;;;594.57;560.10;;;8.20;99.90;;;;;;4983512;28;20462;-88
2022/11/18 02:05:13;;;;;;;588.70;553.80;;;8.20;99.90;;;;;;4982899;28;20459;-86
2022/11/18 02:07:43;;;;;;;592.10;559.10;;;8.20;99.90;;;;;;4983169;28;20903;-87
2022/11/18 02:10:17;;;;;;;592.00;558.50;;;8.20;99.90;;;;;;4982591;28;20455;-87
2022/11/18 02:12:44;;;;;;;597.93;563.60;;;8.20;99.90;;;;;;4982961;28;20469;-86
2022/11/18 02:15:12;;;;;;;600.33;565.40;;;8.20;99.90;;;;;;4982863;28;20455;-86
2022/11/18 02:17:48;;;;;;;604.63;569.40;;;8.10;99.90;;;;;;4982904;28;20965;-85
2022/11/18 02:20:30;;;;;;;599.47;564.77;;;8.10;99.90;;;;;;4982538;28;20469;-86
2022/11/18 02:23:30;;;;;;;600.30;565.37;;;8.10;99.90;;;;;;4982578;28;20948;-87
2022/11/18 02:26:21;;;;;;;595.20;561.10;;;8.10;99.90;;;;;;4982311;28;20455;-86
2022/11/18 02:29:00;;;;;;;613.17;576.87;;;8.10;99.90;;;;;;4982179;28;20510;-85
2022/11/18 02:31:33;;;;;;;612.73;577.27;;;8.10;99.90;;;;;;4980848;28;20486;-87
2022/11/18 02:34:07;;;;;;;616.47;579.20;;;8.10;99.90;;;;;;4982530;28;20455;-86
2022/11/18 02:36:40;;;;;;;630.57;592.87;;;8.10;99.90;;;;;;4982003;28;20451;-86
2022/11/18 02:39:12;;;;;;;632.57;594.93;;;8.10;99.90;;;;;;4982834;28;20475;-87
2022/11/18 02:41:41;;;;;;;624.10;586.67;;;8.00;99.90;;;;;;4981689;28;20477;-86
2022/11/18 02:44:13;;;;;;;630.83;593.57;;;7.90;99.90;;;;;;4983165;28;20458;-86
2022/11/18 02:46:40;;;;;;;664.87;622.90;;;7.90;99.90;;;;;;4981526;28;20458;-87
2022/11/18 02:49:11;;;;;;;659.10;617.77;;;7.90;99.90;;;;;;4981621;28;20902;-86
2022/11/18 02:51:41;;;;;;;660.83;618.70;;;7.90;99.90;;;;;;4981843;28;20482;-86
2022/11/18 02:54:10;;;;;;;664.23;622.23;;;7.80;99.90;;;;;;4981685;28;20463;-89
2022/11/18 02:56:37;;;;;;;685.23;640.43;;;7.80;99.90;;;;;;4981624;28;20494;-85
2022/11/18 02:59:04;;;;;;;687.80;641.80;;;7.80;99.90;;;;;;4982044;28;20475;-87
2022/11/18 03:01:35;;;;;;;702.40;654.23;;;7.90;99.90;;;;;;4982090;28;20455;-86
2022/11/18 03:04:02;;;;;;;705.07;655.60;;;7.80;99.90;;;;;;4969481;28;20467;-86
2022/11/18 03:06:33;;;;;;;694.37;644.87;;;7.90;99.90;;;;;;4962910;28;20499;-87
2022/11/18 03:09:09;;;;;;;685.57;636.70;;;8.00;99.90;;;;;;4962917;28;20503;-86
2022/11/18 03:11:44;;;;;;;676.67;629.47;;;7.90;99.90;;;;;;4961941;28;20529;-86
2022/11/18 03:14:20;;;;;;;671.80;625.80;;;8.00;99.90;;;;;;4962699;28;20501;-86
2022/11/18 03:16:56;;;;;;;675.63;630.60;;;8.10;99.90;;;;;;4962021;28;20511;-86
2022/11/18 03:19:30;;;;;;;659.53;615.07;;;8.10;99.90;;;;;;4961442;28;20887;-87
2022/11/18 03:22:05;;;;;;;653.53;610.20;;;8.20;99.90;;;;;;4961867;28;20447;-86
2022/11/18 03:24:35;;;;;;;627.87;587.30;;;8.30;99.90;;;;;;4962406;28;20463;-86
2022/11/18 03:27:10;;;;;;;589.47;553.73;;;8.40;99.90;;;;;;4962333;28;20487;-88
2022/11/18 03:29:42;;;;;;;536.03;504.33;;;8.40;99.90;;;;;;4962646;28;20488;-85
2022/11/18 03:32:16;;;;;;;516.13;487.43;;;8.50;99.90;;;;;;4962371;28;20485;-86
2022/11/18 03:34:46;;;;;;;504.70;477.77;;;8.60;99.90;;;;;;4961893;28;20526;-86
2022/11/18 03:37:15;;;;;;;486.70;460.40;;;8.50;99.90;;;;;;4961813;28;20456;-87
2022/11/18 03:39:47;;;;;;;463.50;440.67;;;8.60;99.90;;;;;;4962600;28;20482;-86
2022/11/18 03:42:21;;;;;;;435.60;413.80;;;8.70;99.90;;;;;;4961357;28;20452;-86
2022/11/18 03:44:52;;;;;;;412.60;392.13;;;8.80;99.90;;;;;;4961557;28;20467;-86
2022/11/18 03:47:26;;;;;;;398.93;380.60;;;8.70;99.90;;;;;;4962251;28;20543;-87
2022/11/18 03:49:57;;;;;;;385.53;367.53;;;8.80;99.90;;;;;;4962322;28;20456;-87
2022/11/18 03:52:27;;;;;;;370.87;354.03;;;8.70;99.90;;;;;;4961245;28;20859;-86
2022/11/18 03:54:57;;;;;;;352.70;337.37;;;8.80;99.90;;;;;;4961293;28;20466;-86
2022/11/18 03:57:31;;;;;;;346.50;330.93;;;8.80;99.90;;;;;;4961626;28;20462;-86
2022/11/18 04:00:05;;;;;;;345.57;330.33;;;8.70;99.90;;;;;;4961925;28;20470;-86
2022/11/18 04:02:34;;;;;;;342.40;328.00;;;8.70;99.90;;;;;;4961300;28;20452;-86
2022/11/18 04:05:03;;;;;;;358.50;343.43;;;8.60;99.90;;;;;;4961582;28;20466;-86
2022/11/18 04:07:33;;;;;;;359.13;344.07;;;8.50;99.90;;;;;;4961230;28;20562;-86
2022/11/18 04:10:06;;;;;;;369.77;353.67;;;8.60;99.90;;;;;;4961468;28;20462;-86
2022/11/18 04:12:40;;;;;;;372.33;356.13;;;8.50;99.90;;;;;;4960696;28;20490;-86
2022/11/18 04:15:07;;;;;;;380.47;364.20;;;8.50;99.90;;;;;;4961028;28;20460;-86
2022/11/18 04:17:36;;;;;;;378.47;361.73;;;8.50;99.90;;;;;;4960945;28;20456;-88
2022/11/18 04:20:02;;;;;;;376.40;359.90;;;8.50;99.90;;;;;;4961523;28;20461;-87
2022/11/18 04:22:29;;;;;;;364.40;348.30;;;8.50;99.90;;;;;;4961389;28;20452;-86
2022/11/18 04:24:56;;;;;;;356.70;341.00;;;8.50;99.90;;;;;;4961337;28;20457;-86
2022/11/18 04:27:23;;;;;;;341.73;326.37;;;8.50;99.90;;;;;;4961151;28;20456;-86
2022/11/18 04:29:49;;;;;;;310.00;296.17;;;8.60;99.90;;;;;;4961206;28;20614;-87
2022/11/18 04:32:16;;;;;;;285.73;272.43;;;8.60;99.90;;;;;;4960492;28;20568;-86
2022/11/18 04:34:44;;;;;;;253.27;241.63;;;8.70;99.90;;;;;;4961029;28;20488;-88
2022/11/18 04:37:11;;;;;;;237.13;226.70;;;8.70;99.90;;;;;;4960722;28;20454;-89
2022/11/18 04:39:38;;;;;;;230.33;220.13;;;8.80;99.90;;;;;;4960781;28;20479;-85
2022/11/18 04:42:05;;;;;;;223.20;213.77;;;8.70;99.90;;;;;;4960545;28;20460;-86
2022/11/18 04:44:33;;;;;;;225.90;215.30;;;8.70;99.90;;;;;;4961045;28;20459;-87
2022/11/18 04:47:01;;;;;;;238.90;228.70;;;8.70;99.90;;;;;;4960433;28;20455;-87
2022/11/18 04:49:29;;;;;;;234.30;224.27;;;8.70;99.90;;;;;;4960330;28;20482;-86
2022/11/18 04:51:58;;;;;;;242.90;232.77;;;8.70;99.90;;;;;;4959201;28;20483;-84
2022/11/18 04:54:26;;;;;;;264.37;252.57;;;8.70;99.90;;;;;;4959972;28;20997;-86
2022/11/18 04:56:53;;;;;;;359.97;344.67;;;8.70;99.90;;;;;;4962912;28;20455;-85
2022/11/18 04:59:22;;;;;;;422.50;404.47;;;8.70;99.90;;;;;;4961977;28;20468;-84
2022/11/18 05:01:50;;;;;;;464.13;443.40;;;8.60;99.90;;;;;;4961163;28;20452;-84
2022/11/18 05:04:18;;;;;;;495.23;472.13;;;8.60;99.90;;;;;;4961747;28;20464;-84
2022/11/18 05:06:45;;;;;;;552.70;524.30;;;8.60;99.90;;;;;;4961313;28;20462;-84
2022/11/18 05:09:14;;;;;;;577.50;546.90;;;8.50;99.90;;;;;;4961016;28;20476;-84
2022/11/18 05:14:26;;;;;;;621.27;587.10;;;8.50;99.90;;;;;;4961349;29;20454;-86
2022/11/18 05:16:53;;;;;;;640.77;603.80;;;8.40;99.90;;;;;;4960854;28;20455;-84
2022/11/18 05:19:20;;;;;;;654.27;616.97;;;8.40;99.90;;;;;;4961548;28;20482;-85
2022/11/18 05:21:46;;;;;;;654.30;616.10;;;8.30;99.90;;;;;;4961118;28;20452;-85
2022/11/18 05:24:15;;;;;;;660.83;621.83;;;8.40;99.90;;;;;;4961445;28;20821;-85
2022/11/18 05:26:42;;;;;;;671.43;629.17;;;8.40;99.90;;;;;;4961524;28;20487;-85
2022/11/18 05:29:09;;;;;;;680.57;638.87;;;8.30;99.90;;;;;;4961444;28;20496;-84
2022/11/18 05:31:36;;;;;;;681.43;637.97;;;8.30;99.90;;;;;;4960032;28;20487;-87
2022/11/18 05:34:03;;;;;;;685.30;642.37;;;8.30;99.90;;;;;;4960496;28;20844;-83
2022/11/18 05:36:29;;;;;;;679.97;636.63;;;8.30;99.90;;;;;;4960901;28;20830;-84
2022/11/18 05:38:58;;;;;;;685.27;640.80;;;8.20;99.90;;;;;;4960415;28;20482;-87
2022/11/18 05:44:11;;;;;;;679.77;633.73;;;8.20;99.90;;;;;;4960952;29;20452;-85
2022/11/18 05:46:38;;;;;;;691.83;646.30;;;8.20;99.90;;;;;;4961446;28;20464;-84
2022/11/18 05:49:04;;;;;;;681.23;636.83;;;8.20;99.90;;;;;;4961292;28;20483;-84
2022/11/18 05:51:31;;;;;;;679.07;635.97;;;8.20;99.90;;;;;;4961753;28;20483;-87
2022/11/18 05:53:59;;;;;;;672.70;629.40;;;8.20;99.90;;;;;;4960841;28;20502;-85
2022/11/18 05:56:29;;;;;;;680.07;637.10;;;8.20;99.90;;;;;;4961323;28;20460;-88
2022/11/18 05:58:56;;;;;;;681.20;637.93;;;8.20;99.90;;;;;;4961945;28;20483;-85
2022/11/18 06:01:26;;;;;;;676.90;634.67;;;8.10;99.90;;;;;;4961724;28;20841;-85
2022/11/18 06:03:56;;;;;;;674.50;631.33;;;8.10;99.90;;;;;;4961465;28;20463;-81
2022/11/18 06:06:32;;;;;;;682.97;639.07;;;8.00;99.90;;;;;;4961554;28;20456;-86
2022/11/18 06:09:44;;;;;;;;;;;;;;;;;;;;;
2022/11/18 06:16:03;;;;;;;674.83;631.00;;;8.10;99.90;;;;;;4820539;29;20463;-85
2022/11/18 06:18:33;;;;;;;661.17;619.00;;;8.10;99.90;;;;;;4941007;28;20480;-85
2022/11/18 06:21:13;;;;;;;667.23;624.43;;;8.10;99.90;;;;;;4961945;29;20459;-86
2022/11/18 06:23:42;;;;;;;673.63;629.97;;;8.10;99.90;;;;;;4960223;28;20455;-86
2022/11/18 06:26:10;;;;;;;675.10;632.00;;;8.10;99.90;;;;;;4961775;28;20452;-87
2022/11/18 06:28:38;;;;;;;682.10;636.90;;;8.10;99.90;;;;;;4962770;28;20480;-88
2022/11/18 06:31:24;;;;;;;677.10;632.17;;;8.10;99.90;;;;;;4962289;28;20462;-86
2022/11/18 06:34:03;;;;;;;674.77;630.50;;;8.10;99.90;;;;;;4959850;28;20458;-86
2022/11/18 06:36:29;;;;;;;666.80;623.00;;;8.10;99.90;;;;;;4961417;28;20857;-86
2022/11/18 06:39:08;;;;;;;666.47;622.07;;;8.10;99.90;;;;;;4961801;28;20486;-86
2022/11/18 06:41:35;;;;;;;666.00;622.57;;;8.10;99.90;;;;;;4961748;28;20452;-88
2022/11/18 06:44:00;;;;;;;664.53;622.23;;;8.10;99.90;;;;;;4961289;28;20546;-86
2022/11/18 06:49:13;;;;;;;655.60;615.37;;;8.10;99.90;;;;;;4962068;28;20236;-86
2022/11/18 06:51:40;;;;;;;664.03;622.57;;;8.10;99.90;;;;;;4961679;28;20455;-85
2022/11/18 06:54:07;;;;;;;654.23;614.40;;;8.10;99.90;;;;;;4962184;28;20460;-85
2022/11/18 06:56:34;;;;;;;643.70;604.47;;;8.10;99.90;;;;;;4962011;28;20528;-85
2022/11/18 06:59:01;;;;;;;631.63;593.57;;;8.10;99.90;;;;;;4961208;28;20476;-87
2022/11/18 07:01:30;;;;;;;627.63;589.83;;;8.20;99.90;;;;;;4961108;28;20455;-85
2022/11/18 07:03:59;;;;;;;626.57;589.90;;;8.20;99.90;;;;;;4960954;28;20459;-86
2022/11/18 07:06:27;;;;;;;617.93;582.27;;;8.20;99.90;;;;;;4961726;28;20452;-85
2022/11/18 07:08:54;;;;;;;613.17;577.80;;;8.30;99.90;;;;;;4961773;28;20479;-86
2022/11/18 07:11:23;;;;;;;613.97;578.53;;;8.30;99.90;;;;;;4960910;28;20460;-85
2022/11/18 07:13:49;;;;;;;616.37;581.07;;;8.30;99.90;;;;;;4977798;28;20490;-84
2022/11/18 07:16:18;;;;;;;599.60;564.87;;;8.40;99.90;;;;;;4978526;28;20459;-85
2022/11/18 07:18:47;;;;;;;602.67;568.37;;;8.50;99.90;;;;;;4977934;28;20994;-86
2022/11/18 07:21:16;;;;;;;591.87;557.97;;;8.50;99.90;;;;;;4977455;28;20455;-84
2022/11/18 07:23:43;;;;;;;599.23;564.43;;;8.50;99.90;;;;;;4976768;28;20975;-84
2022/11/18 07:26:10;;;;;;;599.40;564.80;;;8.60;99.90;;;;;;4977299;28;20465;-83
2022/11/18 07:28:37;;;;;;;597.57;563.23;;;8.60;99.90;;;;;;4977128;28;20486;-83
2022/11/18 07:31:06;;;;;;;605.53;569.17;;;8.60;99.90;;;;;;4956657;28;20468;-83
2022/11/18 07:33:33;;;;;;;603.03;567.80;;;8.60;99.90;;;;;;4958047;28;20848;-84
2022/11/18 07:36:03;;;;;;;621.97;584.87;;;8.70;99.90;;;;;;4957952;28;20466;-84
2022/11/18 07:38:29;;;;;;;619.53;582.70;;;8.70;99.90;;;;;;4958208;28;20487;-85
2022/11/18 07:41:04;;;;;;;618.57;582.33;;;8.70;99.90;;;;;;4958216;28;20455;-84
2022/11/18 07:43:32;;;;;;;609.00;572.30;;;8.70;99.90;;;;;;4958349;28;20870;-84
2022/11/18 07:46:09;;;;;;;600.30;565.70;;;8.70;99.90;;;;;;4958220;28;20963;-84
2022/11/18 07:48:36;;;;;;;599.50;565.20;;;8.70;99.90;;;;;;4958703;28;21070;-85
2022/11/18 07:51:04;;;;;;;599.13;564.50;;;8.70;99.90;;;;;;4958511;28;20463;-84
2022/11/18 07:53:31;;;;;;;592.37;558.60;;;8.70;99.90;;;;;;4958642;28;20488;-84
2022/11/18 07:55:58;;;;;;;603.80;569.47;;;8.60;99.90;;;;;;4957880;28;20463;-84
2022/11/18 07:58:28;;;;;;;619.07;582.97;;;8.60;99.90;;;;;;4958435;28;20480;-84
2022/11/18 08:00:57;;;;;;;620.60;584.50;;;8.50;99.90;;;;;;4958328;28;20465;-85
2022/11/18 08:03:26;;;;;;;631.00;594.20;;;8.40;99.90;;;;;;4959346;28;20458;-85
2022/11/18 08:05:53;;;;;;;626.20;589.37;;;8.40;99.90;;;;;;4958556;28;20495;-85
2022/11/18 08:08:21;;;;;;;622.90;586.10;;;8.30;99.90;;;;;;4959146;28;20476;-84
2022/11/18 08:10:48;;;;;;;631.13;593.37;;;8.20;99.90;;;;;;4958704;28;20467;-85
2022/11/18 08:13:15;;;;;;;620.10;583.07;;;8.20;99.90;;;;;;4958720;28;21084;-84
2022/11/18 08:15:42;;;;;;;623.33;585.73;;;8.20;99.90;;;;;;4959290;28;20527;-85
2022/11/18 08:18:08;;;;;;;617.77;581.70;;;8.20;99.90;;;;;;4959319;28;20480;-85
2022/11/18 08:20:35;;;;;;;612.17;576.17;;;8.10;99.90;;;;;;4959031;28;20460;-85
2022/11/18 08:23:02;;;;;;;604.00;568.80;;;8.20;99.90;;;;;;4959143;28;20463;-86
2022/11/18 08:25:30;;;;;;;597.17;563.53;;;8.10;99.90;;;;;;4959376;28;20466;-85
2022/11/18 08:27:57;;;;;;;586.77;553.47;;;8.30;99.90;;;;;;4958570;28;20570;-85
2022/11/18 08:30:24;;;;;;;593.40;559.40;;;8.20;99.90;;;;;;4958635;28;20464;-84
2022/11/18 08:32:50;;;;;;;585.23;551.83;;;8.30;99.90;;;;;;4959349;28;20480;-85
2022/11/18 08:35:17;;;;;;;581.20;548.50;;;8.40;99.90;;;;;;4959413;28;20456;-85
2022/11/18 08:37:44;;;;;;;557.43;527.43;;;8.50;99.90;;;;;;4959241;28;20455;-85
2022/11/18 08:40:11;;;;;;;539.87;511.67;;;8.50;99.90;;;;;;4958974;28;20452;-86
2022/11/18 08:42:39;;;;;;;525.00;497.23;;;8.50;99.90;;;;;;4958034;28;20452;-85
2022/11/18 08:45:08;;;;;;;524.73;497.73;;;8.50;99.90;;;;;;4959813;28;20467;-85
2022/11/18 08:47:35;;;;;;;523.00;496.00;;;8.50;99.90;;;;;;4959124;28;20456;-85
2022/11/18 08:50:02;;;;;;;500.40;474.80;;;8.60;99.90;;;;;;4959751;28;20464;-85
2022/11/18 08:52:29;;;;;;;494.77;468.90;;;8.60;99.90;;;;;;4959180;28;20583;-86
2022/11/18 08:54:56;;;;;;;481.00;457.30;;;8.60;99.90;;;;;;4958898;28;20452;-86
2022/11/18 08:57:22;;;;;;;452.67;430.93;;;8.60;99.90;;;;;;4959409;28;20463;-85
2022/11/18 08:59:50;;;;;;;432.53;412.03;;;8.60;99.90;;;;;;4959231;28;20499;-85
2022/11/18 09:02:19;;;;;;;405.37;387.17;;;8.60;99.90;;;;;;4958836;28;20466;-85
2022/11/18 09:04:51;;;;;;;384.37;366.77;;;8.60;99.90;;;;;;4958918;28;20550;-86
2022/11/18 09:07:18;;;;;;;371.30;354.70;;;8.70;99.90;;;;;;4962447;28;20975;-86
2022/11/18 09:09:45;;;;;;;325.13;310.67;;;8.80;99.90;;;;;;4959071;28;20490;-85
2022/11/18 09:12:13;;;;;;;319.90;306.10;;;8.80;99.90;;;;;;4959077;28;20755;-86
2022/11/18 09:14:41;;;;;;;310.27;296.63;;;8.90;99.90;;;;;;4959447;28;20464;-86
2022/11/18 09:17:10;;;;;;;307.13;294.23;;;8.90;99.90;;;;;;4958713;28;20851;-85
2022/11/18 09:19:37;;;;;;;304.37;290.60;;;8.90;99.90;;;;;;4959420;28;20476;-86
2022/11/18 09:22:04;;;;;;;278.93;267.53;;;8.90;99.90;;;;;;4959084;28;20464;-86
2022/11/18 09:24:30;;;;;;;266.80;255.40;;;8.90;99.90;;;;;;4959314;28;20459;-85
2022/11/18 09:26:57;;;;;;;249.47;239.47;;;9.10;99.90;;;;;;4958838;28;21083;-86
2022/11/18 09:29:25;;;;;;;223.03;213.33;;;9.20;99.90;;;;;;4959301;28;20490;-85
2022/11/18 09:31:52;;;;;;;198.57;190.93;;;9.30;99.90;;;;;;4958875;28;20888;-85
2022/11/18 09:34:20;;;;;;;154.87;148.57;;;9.40;99.90;;;;;;4959150;28;20590;-85
2022/11/18 09:36:46;;;;;;;140.70;135.00;;;9.60;99.90;;;;;;4959248;28;20451;-85
2022/11/18 09:39:13;;;;;;;100.70;96.63;;;9.70;99.90;;;;;;4958979;28;20487;-85
2022/11/18 09:41:45;;;;;;;86.27;82.57;;;9.80;99.90;;;;;;4961827;28;20455;-87
2022/11/18 09:44:21;;;;;;;55.13;52.27;;;10.10;99.90;;;;;;4963465;28;20467;-85
2022/11/18 09:46:59;;;;;;;27.57;25.87;;;10.10;99.90;;;;;;4975985;28;20455;-85
2022/11/18 09:49:30;;;;;;;24.50;19.50;;;10.30;99.90;;;;;;4982605;28;20474;-86
2022/11/18 09:52:01;;;;;;;20.33;18.37;;;10.40;99.90;;;;;;4981927;28;20465;-85
2022/11/18 09:54:31;;;;;;;12.20;10.10;;;10.50;99.90;;;;;;4982236;28;20487;-85
2022/11/18 09:56:58;;;;;;;9.30;7.30;;;10.60;99.90;;;;;;4982303;28;20454;-85
2022/11/18 09:59:28;;;;;;;11.63;8.90;;;10.70;99.90;;;;;;4982000;28;20475;-86
2022/11/18 10:02:34;;;;;;;15.17;7.07;;;10.90;99.90;;;;;;4982370;28;20455;-86
2022/11/18 10:08:45;;;;;;;13.00;6.93;;;11.20;99.90;;;;;;4847539;29;20470;-86
2022/11/18 10:11:16;;;;;;;8.43;5.30;;;11.20;99.90;;;;;;4944183;28;20454;-87
2022/11/18 10:13:54;;;;;;;13.37;4.67;;;11.20;99.90;;;;;;4983215;28;20487;-86
2022/11/18 10:16:34;;;;;;;9.80;4.10;;;11.30;99.90;;;;;;4983551;28;20458;-87
2022/11/18 10:22:08;;;;;;;8.50;3.70;;;11.60;99.90;;;;;;4960650;28;20608;-86
2022/11/18 10:24:40;;;;;;;15.57;4.37;;;11.50;99.90;;;;;;4982756;28;20458;-87
2022/11/18 10:27:11;;;;;;;10.60;3.93;;;11.50;99.90;;;;;;4983091;28;20451;-86
2022/11/18 10:29:38;;;;;;;12.73;3.67;;;11.50;99.90;;;;;;4982329;28;20497;-85
2022/11/18 10:32:08;;;;;;;8.30;3.33;;;11.50;99.90;;;;;;4981923;28;20455;-85
2022/11/18 10:34:47;;;;;;;11.67;2.70;;;11.20;99.90;;;;;;4982215;28;20505;-87
2022/11/18 10:37:24;;;;;;;6.90;2.40;;;11.00;99.90;;;;;;4982798;28;20451;-86
2022/11/18 10:39:52;;;;;;;13.70;3.00;;;10.80;99.90;;;;;;4982359;28;20462;-86
2022/11/18 10:42:26;;;;;;;5.63;2.30;;;10.70;99.90;;;;;;4982401;28;20455;-86
2022/11/18 10:44:53;;;;;;;8.53;2.50;;;10.60;99.90;;;;;;4981105;28;20461;-86
2022/11/18 10:47:29;;;;;;;7.30;2.20;;;10.60;99.90;;;;;;4982644;28;20550;-87
2022/11/18 10:49:59;;;;;;;9.63;2.53;;;10.60;99.90;;;;;;4982913;28;20964;-86
2022/11/18 10:52:27;;;;;;;8.98;2.50;;;10.60;99.90;;;;;;4980021;28;20461;-87
2022/11/18 10:55:21;;;;;;;13.13;3.20;;;10.60;99.90;;;;;;4982316;28;20219;-86
2022/11/18 10:57:54;;;;;;;6.27;2.60;;;10.60;99.90;;;;;;4981900;28;20652;-86
2022/11/18 11:00:42;;;;;;;7.33;2.50;;;10.60;99.90;;;;;;4982386;28;20455;-86
2022/11/18 11:03:24;;;;;;;5.93;2.63;;;10.50;99.90;;;;;;4978577;28;20881;-85
2022/11/18 11:06:30;;;;;;;6.60;2.77;;;10.40;99.90;;;;;;4978591;28;20828;-86
2022/11/18 11:09:00;;;;;;;8.53;3.00;;;10.30;99.90;;;;;;4980983;28;20482;-87
2022/11/18 11:11:28;;;;;;;9.60;3.17;;;10.40;99.90;;;;;;4980783;28;20485;-84
2022/11/18 11:14:04;;;;;;;6.03;2.90;;;10.30;99.90;;;;;;4981642;28;20487;-85
2022/11/18 11:16:33;;;;;;;8.50;2.33;;;10.30;99.90;;;;;;4982028;28;20465;-85
2022/11/18 11:19:03;;;;;;;7.90;2.43;;;10.40;99.90;;;;;;4981149;28;20481;-86
2022/11/18 11:21:31;;;;;;;5.90;2.63;;;10.40;99.90;;;;;;4980918;28;20451;-85
2022/11/18 11:23:59;;;;;;;8.20;2.77;;;10.30;99.90;;;;;;4980513;28;20455;-87
2022/11/18 11:26:34;;;;;;;5.43;3.07;;;10.40;99.90;;;;;;4980417;28;20473;-86
2022/11/18 11:29:07;;;;;;;12.43;2.97;;;10.30;99.90;;;;;;4981655;28;20533;-86
2022/11/18 11:31:47;;;;;;;5.50;2.60;;;10.20;99.90;;;;;;4981740;28;20455;-85
2022/11/18 11:34:22;;;;;;;13.17;2.73;;;10.30;99.90;;;;;;4981804;28;20489;-86
2022/11/18 11:36:55;;;;;;;7.30;2.30;;;10.30;99.90;;;;;;4980882;28;20455;-86
2022/11/18 11:39:48;;;;;;;8.73;2.77;;;10.40;99.90;;;;;;4981870;28;20554;-86
2022/11/18 11:42:28;;;;;;;5.80;3.00;;;10.30;99.90;;;;;;4981656;28;20559;-86
2022/11/18 11:45:07;;;;;;;15.73;3.70;;;10.20;99.90;;;;;;4981546;28;20454;-86
2022/11/18 11:47:48;;;;;;;6.30;3.10;;;10.10;99.90;;;;;;4980279;28;20833;-85
2022/11/18 11:50:19;;;;;;;6.43;2.20;;;9.90;99.90;;;;;;4981030;28;20498;-88
2022/11/18 11:52:59;;;;;;;6.83;2.30;;;10.00;99.90;;;;;;4980771;28;20957;-85
2022/11/18 11:55:31;;;;;;;9.13;2.73;;;10.20;99.90;;;;;;4980923;28;20465;-86
2022/11/18 11:58:09;;;;;;;7.43;2.20;;;10.00;99.90;;;;;;4980829;28;20482;-84
2022/11/18 12:00:40;;;;;;;10.50;2.17;;;10.00;99.90;;;;;;4980839;28;20457;-86
2022/11/18 12:03:22;;;;;;;7.90;2.33;;;9.90;99.90;;;;;;4980106;28;20459;-86
2022/11/18 12:05:49;;;;;;;6.80;2.27;;;9.90;99.90;;;;;;4980212;28;20454;-85
2022/11/18 12:08:21;;;;;;;9.23;2.67;;;9.90;99.90;;;;;;4979830;28;21019;-87
2022/11/18 12:10:54;;;;;;;7.13;2.80;;;9.90;99.90;;;;;;4980074;28;20450;-85
2022/11/18 12:13:28;;;;;;;9.23;2.77;;;9.90;99.90;;;;;;4981586;28;20481;-86
2022/11/18 12:16:08;;;;;;;7.33;2.70;;;9.90;99.90;;;;;;4980991;28;20463;-86
2022/11/18 12:18:41;;;;;;;7.93;3.67;;;9.80;99.90;;;;;;4980988;28;20477;-86
2022/11/18 12:21:08;;;;;;;5.50;2.60;;;9.80;99.90;;;;;;4980017;28;20466;-87
2022/11/18 12:23:35;;;;;;;8.73;3.43;;;9.80;99.90;;;;;;4979725;28;20458;-86
2022/11/18 12:26:05;;;;;;;8.90;3.17;;;9.80;99.90;;;;;;4981145;28;20451;-86
2022/11/18 12:28:39;;;;;;;9.07;3.27;;;9.90;99.90;;;;;;4980512;28;20493;-86
2022/11/18 12:31:33;;;;;;;12.33;3.67;;;10.00;99.90;;;;;;4980181;28;20459;-87
2022/11/18 12:34:16;;;;;;;17.93;4.00;;;10.10;99.90;;;;;;4982180;28;20505;-87
2022/11/18 12:36:43;;;;;;;9.23;3.20;;;10.20;99.90;;;;;;4971705;28;20459;-86
2022/11/18 12:39:46;;;;;;;10.67;3.50;;;10.30;99.90;;;;;;4980575;28;20471;-88
2022/11/18 12:45:57;;;;;;;10.00;3.60;;;10.30;99.90;;;;;;4980627;28;20486;-87
2022/11/18 12:48:40;;;;;;;5.93;3.40;;;10.30;99.90;;;;;;4972868;28;20464;-87
2022/11/18 12:51:41;;;;;;;7.57;3.70;;;10.30;99.90;;;;;;4960669;29;20455;-86
2022/11/18 12:54:27;;;;;;;9.13;3.80;;;10.30;99.90;;;;;;4953438;28;20475;-86
2022/11/18 12:56:55;;;;;;;8.00;3.83;;;10.30;99.90;;;;;;4960893;29;20543;-86
2022/11/18 12:59:33;;;;;;;8.73;3.57;;;10.30;99.90;;;;;;4960412;28;20548;-88
2022/11/18 13:02:23;;;;;;;6.17;4.27;;;10.40;99.90;;;;;;4960963;28;20466;-87
2022/11/18 13:05:12;;;;;;;12.63;4.40;;;10.50;99.90;;;;;;4957933;28;20458;-86
2022/11/18 13:10:30;;;;;;;12.40;10.90;;;10.60;99.90;;;;;;4959324;29;20439;-86
2022/11/18 13:12:58;;;;;;;12.27;7.23;;;10.80;99.90;;;;;;4960293;28;20836;-87